createdAt,value
2019-04-25T00:00:44.601Z,"  69.38"
2019-04-25T00:01:44.766Z,"  69.04"
2019-04-25T00:02:44.783Z,"  69.48"
2019-04-25T00:03:44.769Z,"  69.30"
2019-04-25T00:04:45.006Z,"  69.25"
2019-04-25T00:05:44.761Z,"  69.42"
2019-04-25T00:06:44.975Z,"  69.51"
2019-04-25T00:07:44.958Z,"  69.50"
2019-04-25T00:08:45.235Z,"  69.37"
2019-04-25T00:09:45.246Z,"  69.56"
2019-04-25T00:10:45.373Z,"  69.71"
2019-04-25T00:11:46.559Z,"  69.90"
2019-04-25T00:12:44.647Z,"  69.93"
2019-04-25T00:13:44.626Z,"  69.69"
2019-04-25T00:14:44.585Z,"  69.61"
2019-04-25T00:15:45.961Z,"  69.34"
2019-04-25T00:16:45.193Z,"  69.92"
2019-04-25T00:17:44.613Z,"  69.66"
2019-04-25T00:18:44.589Z,"  69.83"
2019-04-25T00:19:44.597Z,"  69.78"
2019-04-25T00:20:44.822Z,"  69.82"
2019-04-25T00:21:44.607Z,"  69.61"
2019-04-25T00:22:44.864Z,"  69.87"
2019-04-25T00:23:44.980Z,"  69.55"
2019-04-25T00:24:45.133Z,"  69.14"
2019-04-25T00:25:45.905Z,"  69.57"
2019-04-25T00:26:45.170Z,"  69.59"
2019-04-25T00:27:45.989Z,"  69.73"
2019-04-25T00:28:45.422Z,"  70.04"
2019-04-25T00:29:45.738Z,"  70.29"
2019-04-25T00:30:44.685Z,"  69.81"
2019-04-25T00:31:45.096Z,"  70.05"
2019-04-25T00:32:45.341Z,"  69.60"
2019-04-25T00:33:45.311Z,"  69.76"
2019-04-25T00:34:45.576Z,"  70.09"
2019-04-25T00:35:45.730Z,"  70.38"
2019-04-25T00:36:45.615Z,"  70.05"
2019-04-25T00:37:45.487Z,"  70.09"
2019-04-25T00:38:46.594Z,"  70.08"
2019-04-25T00:39:45.323Z,"  70.20"
2019-04-25T00:40:44.860Z,"  70.21"
2019-04-25T00:41:45.491Z,"  70.15"
2019-04-25T00:42:44.886Z,"  70.08"
2019-04-25T00:43:45.293Z,"  70.12"
2019-04-25T00:44:45.040Z,"  70.20"
2019-04-25T00:45:45.666Z,"  70.25"
2019-04-25T00:46:46.390Z,"  70.26"
2019-04-25T00:47:44.755Z,"  70.29"
2019-04-25T00:48:44.566Z,"  70.09"
2019-04-25T00:49:45.159Z,"  70.36"
2019-04-25T00:50:44.625Z,"  70.16"
2019-04-25T00:51:44.564Z,"  70.12"
2019-04-25T00:52:44.836Z,"  70.40"
2019-04-25T00:53:44.675Z,"  70.30"
2019-04-25T00:54:44.525Z,"  70.38"
2019-04-25T00:55:44.671Z,"  70.25"
2019-04-25T00:56:46.067Z,"  70.11"
2019-04-25T00:57:44.811Z,"  70.32"
2019-04-25T00:58:45.253Z,"  70.00"
2019-04-25T00:59:45.463Z,"  70.33"
2019-04-25T01:00:44.905Z,"  70.28"
2019-04-25T01:01:46.517Z,"  70.00"
2019-04-25T01:02:45.291Z,"  69.91"
2019-04-25T01:03:45.297Z,"  69.46"
2019-04-25T01:04:45.183Z,"  69.67"
2019-04-25T01:05:45.519Z,"  69.56"
2019-04-25T01:06:45.323Z,"  69.79"
2019-04-25T01:07:44.534Z,"  69.70"
2019-04-25T01:08:44.513Z,"  70.01"
2019-04-25T01:09:44.569Z,"  69.59"
2019-04-25T01:10:44.546Z,"  69.85"
2019-04-25T01:11:44.545Z,"  70.13"
2019-04-25T01:12:44.678Z,"  69.73"
2019-04-25T01:13:44.664Z,"  69.98"
2019-04-25T01:14:45.714Z,"  69.60"
2019-04-25T01:15:44.952Z,"  69.71"
2019-04-25T01:16:45.069Z,"  69.66"
2019-04-25T01:17:45.396Z,"  69.72"
2019-04-25T01:18:45.303Z,"  69.54"
2019-04-25T01:19:45.719Z,"  69.75"
2019-04-25T01:20:45.373Z,"  69.82"
2019-04-25T01:21:45.516Z,"  69.82"
2019-04-25T01:22:45.682Z,"  69.86"
2019-04-25T01:23:45.716Z,"  69.75"
2019-04-25T01:24:45.597Z,"  69.74"
2019-04-25T01:25:45.774Z,"  69.21"
2019-04-25T01:26:45.866Z,"  69.15"
2019-04-25T01:27:44.538Z,"  69.22"
2019-04-25T01:28:44.528Z,"  68.86"
2019-04-25T01:29:44.577Z,"  69.11"
2019-04-25T01:30:44.530Z,"  68.90"
2019-04-25T01:31:44.618Z,"  68.92"
2019-04-25T01:32:44.887Z,"  69.11"
2019-04-25T01:33:44.489Z,"  69.29"
2019-04-25T01:34:44.481Z,"  69.39"
2019-04-25T01:35:44.867Z,"  69.22"
2019-04-25T01:36:44.567Z,"  69.35"
2019-04-25T01:37:44.526Z,"  68.92"
2019-04-25T01:38:44.867Z,"  69.18"
2019-04-25T01:39:44.503Z,"  69.14"
2019-04-25T01:40:44.493Z,"  69.04"
2019-04-25T01:41:44.553Z,"  69.08"
2019-04-25T01:42:44.488Z,"  69.06"
2019-04-25T01:43:44.517Z,"  69.06"
2019-04-25T01:44:44.546Z,"  68.89"
2019-04-25T01:45:44.468Z,"  69.17"
2019-04-25T01:46:44.463Z,"  69.10"
2019-04-25T01:47:48.876Z,"  69.05"
2019-04-25T01:48:44.480Z,"  68.77"
2019-04-25T01:49:44.485Z,"  68.70"
2019-04-25T01:50:44.505Z,"  68.74"
2019-04-25T01:51:44.473Z,"  68.41"
2019-04-25T01:52:44.515Z,"  68.56"
2019-04-25T01:53:44.481Z,"  68.64"
2019-04-25T01:54:44.475Z,"  68.50"
2019-04-25T01:55:53.827Z,"  68.55"
2019-04-25T01:56:44.561Z,"  68.58"
2019-04-25T01:57:45.347Z,"  68.55"
2019-04-25T01:58:44.462Z,"  68.44"
2019-04-25T01:59:44.497Z,"  68.62"
2019-04-25T02:00:44.995Z,"  68.58"
2019-04-25T02:01:44.527Z,"  68.47"
2019-04-25T02:02:44.506Z,"  68.30"
2019-04-25T02:03:44.449Z,"  68.60"
2019-04-25T02:04:44.476Z,"  68.25"
2019-04-25T02:05:44.526Z,"  68.63"
2019-04-25T02:06:44.554Z,"  68.39"
2019-04-25T02:07:44.511Z,"  68.33"
2019-04-25T02:08:44.473Z,"  68.29"
2019-04-25T02:09:44.472Z,"  68.52"
2019-04-25T02:10:44.498Z,"  68.58"
2019-04-25T02:11:44.493Z,"  68.63"
2019-04-25T02:12:44.540Z,"  68.52"
2019-04-25T02:13:44.453Z,"  68.74"
2019-04-25T02:14:44.499Z,"  68.71"
2019-04-25T02:15:44.526Z,"  68.53"
2019-04-25T02:16:44.497Z,"  68.68"
2019-04-25T02:17:44.491Z,"  68.77"
2019-04-25T02:18:44.459Z,"  69.14"
2019-04-25T02:19:44.474Z,"  69.08"
2019-04-25T02:20:44.502Z,"  68.84"
2019-04-25T02:21:44.990Z,"  68.96"
2019-04-25T02:22:44.454Z,"  68.97"
2019-04-25T02:23:44.426Z,"  69.19"
2019-04-25T02:24:44.433Z,"  69.10"
2019-04-25T02:25:44.437Z,"  69.21"
2019-04-25T02:26:44.428Z,"  69.19"
2019-04-25T02:27:44.435Z,"  69.60"
2019-04-25T02:28:44.439Z,"  69.50"
2019-04-25T02:29:44.777Z,"  69.44"
2019-04-25T02:30:45.372Z,"  69.50"
2019-04-25T02:31:45.172Z,"  69.29"
2019-04-25T02:32:44.447Z,"  69.94"
2019-04-25T02:33:44.515Z,"  69.87"
2019-04-25T02:34:45.946Z,"  70.02"
2019-04-25T02:35:46.766Z,"  69.84"
2019-04-25T02:36:46.988Z,"  70.03"
2019-04-25T02:37:45.118Z,"  70.05"
2019-04-25T02:38:44.425Z,"  70.34"
2019-04-25T02:39:44.903Z,"  70.12"
2019-04-25T02:40:45.416Z,"  69.97"
2019-04-25T02:41:44.637Z,"  69.68"
2019-04-25T02:42:44.681Z,"  69.73"
2019-04-25T02:43:45.198Z,"  69.93"
2019-04-25T02:44:44.589Z,"  70.03"
2019-04-25T02:45:44.419Z,"  69.99"
2019-04-25T02:46:44.970Z,"  70.17"
2019-04-25T02:47:46.291Z,"  69.97"
2019-04-25T02:48:44.423Z,"  70.37"
2019-04-25T02:49:44.759Z,"  70.38"
2019-04-25T02:50:46.228Z,"  70.65"
2019-04-25T02:51:45.088Z,"  70.60"
2019-04-25T02:52:44.542Z,"  70.46"
2019-04-25T02:53:44.768Z,"  70.83"
2019-04-25T02:54:44.923Z,"  70.79"
2019-04-25T02:55:44.756Z,"  70.66"
2019-04-25T02:56:46.670Z,"  70.99"
2019-04-25T02:57:44.962Z,"  70.56"
2019-04-25T02:58:44.454Z,"  70.41"
2019-04-25T02:59:45.077Z,"  70.95"
2019-04-25T03:00:54.972Z,"  70.99"
2019-04-25T03:01:44.612Z,"  70.63"
2019-04-25T03:02:44.633Z,"  70.72"
2019-04-25T03:03:44.947Z,"  70.55"
2019-04-25T03:04:44.779Z,"  70.83"
2019-04-25T03:05:47.186Z,"  70.39"
2019-04-25T03:06:45.273Z,"  71.16"
2019-04-25T03:07:44.675Z,"  70.64"
2019-04-25T03:08:45.029Z,"  70.83"
2019-04-25T03:09:45.113Z,"  70.96"
2019-04-25T03:10:44.526Z,"  71.12"
2019-04-25T03:11:45.038Z,"  71.46"
2019-04-25T03:12:44.717Z,"  71.54"
2019-04-25T03:13:44.419Z,"  71.15"
2019-04-25T03:14:44.719Z,"  71.24"
2019-04-25T03:15:44.459Z,"  71.20"
2019-04-25T03:16:44.987Z,"  71.13"
2019-04-25T03:17:44.602Z,"  71.18"
2019-04-25T03:18:44.424Z,"  71.50"
2019-04-25T03:19:44.375Z,"  70.84"
2019-04-25T03:20:45.207Z,"  71.15"
2019-04-25T03:21:45.191Z,"  71.07"
2019-04-25T03:22:44.611Z,"  70.98"
2019-04-25T03:23:46.370Z,"  71.20"
2019-04-25T03:24:45.852Z,"  71.17"
2019-04-25T03:25:44.378Z,"  71.01"
2019-04-25T03:26:44.416Z,"  71.00"
2019-04-25T03:27:44.341Z,"  71.28"
2019-04-25T03:28:44.354Z,"  71.41"
2019-04-25T03:29:45.743Z,"  71.14"
2019-04-25T03:30:45.022Z,"  71.31"
2019-04-25T03:31:45.135Z,"  71.45"
2019-04-25T03:32:45.006Z,"  71.31"
2019-04-25T03:33:45.970Z,"  71.21"
2019-04-25T03:34:44.318Z,"  71.55"
2019-04-25T03:35:44.321Z,"  71.77"
2019-04-25T03:36:44.389Z,"  71.39"
2019-04-25T03:37:44.357Z,"  71.56"
2019-04-25T03:38:44.351Z,"  71.33"
2019-04-25T03:39:44.353Z,"  71.80"
2019-04-25T03:40:44.335Z,"  72.20"
2019-04-25T03:41:45.553Z,"  72.44"
2019-04-25T03:42:44.368Z,"  72.18"
2019-04-25T03:43:44.340Z,"  71.85"
2019-04-25T03:44:44.305Z,"  71.88"
2019-04-25T03:45:45.311Z,"  72.02"
2019-04-25T03:46:44.355Z,"  71.77"
2019-04-25T03:47:46.209Z,"  71.65"
2019-04-25T03:48:44.642Z,"  71.99"
2019-04-25T03:49:44.305Z,"  71.58"
2019-04-25T03:50:44.399Z,"  72.27"
2019-04-25T03:51:44.373Z,"  71.95"
2019-04-25T03:52:44.348Z,"  71.83"
2019-04-25T03:53:44.356Z,"  72.23"
2019-04-25T03:54:44.330Z,"  71.94"
2019-04-25T03:55:44.453Z,"  71.97"
2019-04-25T03:56:53.287Z,"  72.44"
2019-04-25T03:57:44.447Z,"  72.53"
2019-04-25T03:58:44.390Z,"  72.43"
2019-04-25T03:59:44.333Z,"  72.34"
2019-04-25T04:00:44.796Z,"  72.36"
2019-04-25T04:01:44.297Z,"  72.77"
2019-04-25T04:02:44.474Z,"  72.57"
2019-04-25T04:03:44.296Z,"  72.77"
2019-04-25T04:04:44.361Z,"  72.44"
2019-04-25T04:05:44.302Z,"  72.74"
2019-04-25T04:06:44.270Z,"  72.66"
2019-04-25T04:07:44.374Z,"  72.63"
2019-04-25T04:08:44.423Z,"  72.44"
2019-04-25T04:09:44.526Z,"  72.57"
2019-04-25T04:10:44.281Z,"  72.68"
2019-04-25T04:11:44.272Z,"  72.62"
2019-04-25T04:12:44.432Z,"  72.37"
2019-04-25T04:13:44.300Z,"  72.63"
2019-04-25T04:14:44.299Z,"  72.68"
2019-04-25T04:15:44.265Z,"  72.34"
2019-04-25T04:16:44.432Z,"  72.09"
2019-04-25T04:17:44.295Z,"  71.83"
2019-04-25T04:18:44.340Z,"  71.86"
2019-04-25T04:19:45.236Z,"  72.13"
2019-04-25T04:20:44.335Z,"  72.24"
2019-04-25T04:21:44.327Z,"  71.88"
2019-04-25T04:22:44.270Z,"  72.01"
2019-04-25T04:23:44.318Z,"  71.84"
2019-04-25T04:24:44.358Z,"  71.88"
2019-04-25T04:25:44.258Z,"  71.94"
2019-04-25T04:26:44.274Z,"  72.23"
2019-04-25T04:27:44.382Z,"  71.94"
2019-04-25T04:28:44.281Z,"  71.46"
2019-04-25T04:29:44.265Z,"  71.55"
2019-04-25T04:30:45.388Z,"  71.39"
2019-04-25T04:31:44.294Z,"  71.44"
2019-04-25T04:32:44.282Z,"  71.18"
2019-04-25T04:33:44.289Z,"  71.00"
2019-04-25T04:34:45.492Z,"  71.23"
2019-04-25T04:35:44.269Z,"  71.26"
2019-04-25T04:36:46.469Z,"  71.03"
2019-04-25T04:37:44.249Z,"  70.82"
2019-04-25T04:38:44.347Z,"  70.87"
2019-04-25T04:39:44.243Z,"  70.83"
2019-04-25T04:40:44.331Z,"  70.64"
2019-04-25T04:41:44.323Z,"  70.89"
2019-04-25T04:42:44.278Z,"  70.85"
2019-04-25T04:43:44.315Z,"  71.18"
2019-04-25T04:44:44.289Z,"  71.39"
2019-04-25T04:45:45.569Z,"  71.41"
2019-04-25T04:46:44.271Z,"  71.35"
2019-04-25T04:47:44.221Z,"  71.57"
2019-04-25T04:48:44.255Z,"  71.28"
2019-04-25T04:49:44.262Z,"  71.63"
2019-04-25T04:50:44.247Z,"  71.74"
2019-04-25T04:51:44.466Z,"  71.93"
2019-04-25T04:52:44.974Z,"  71.70"
2019-04-25T04:53:44.342Z,"  72.04"
2019-04-25T04:54:44.265Z,"  72.19"
2019-04-25T04:55:44.322Z,"  72.12"
2019-04-25T04:56:44.302Z,"  72.40"
2019-04-25T04:57:44.881Z,"  72.28"
2019-04-25T04:58:44.257Z,"  72.26"
2019-04-25T04:59:44.308Z,"  72.33"
2019-04-25T05:00:44.477Z,"  72.34"
2019-04-25T05:01:44.952Z,"  72.62"
2019-04-25T05:02:44.293Z,"  72.28"
2019-04-25T05:03:44.380Z,"  72.58"
2019-04-25T05:04:44.218Z,"  72.62"
2019-04-25T05:05:44.272Z,"  72.44"
2019-04-25T05:06:44.239Z,"  72.78"
2019-04-25T05:07:44.237Z,"  72.97"
2019-04-25T05:08:44.225Z,"  72.54"
2019-04-25T05:09:44.348Z,"  73.07"
2019-04-25T05:10:44.274Z,"  72.91"
2019-04-25T05:11:44.322Z,"  72.97"
2019-04-25T05:12:44.222Z,"  72.72"
2019-04-25T05:13:44.469Z,"  72.95"
2019-04-25T05:14:44.482Z,"  72.48"
2019-04-25T05:15:44.660Z,"  72.46"
2019-04-25T05:16:44.226Z,"  72.16"
2019-04-25T05:17:44.221Z,"  72.49"
2019-04-25T05:18:44.226Z,"  72.28"
2019-04-25T05:19:44.224Z,"  71.99"
2019-04-25T05:20:44.186Z,"  72.34"
2019-04-25T05:21:45.609Z,"  71.99"
2019-04-25T05:22:44.592Z,"  72.68"
2019-04-25T05:23:44.621Z,"  72.38"
2019-04-25T05:24:44.182Z,"  72.22"
2019-04-25T05:25:44.280Z,"  71.79"
2019-04-25T05:26:44.292Z,"  71.95"
2019-04-25T05:27:59.072Z,"  72.37"
2019-04-25T05:28:44.517Z,"  71.96"
2019-04-25T05:29:44.210Z,"  72.43"
2019-04-25T05:30:44.170Z,"  72.04"
2019-04-25T05:31:45.612Z,"  71.24"
2019-04-25T05:32:44.264Z,"  71.15"
2019-04-25T05:33:44.191Z,"  71.10"
2019-04-25T05:34:46.127Z,"  70.71"
2019-04-25T05:35:44.402Z,"  70.81"
2019-04-25T05:36:44.215Z,"  70.80"
2019-04-25T05:37:44.233Z,"  70.79"
2019-04-25T05:38:45.187Z,"  70.95"
2019-04-25T05:39:44.149Z,"  70.98"
2019-04-25T05:40:44.200Z,"  70.41"
2019-04-25T05:41:44.278Z,"  70.45"
2019-04-25T05:42:44.362Z,"  70.13"
2019-04-25T05:43:44.177Z,"  69.67"
2019-04-25T05:44:44.210Z,"  69.89"
2019-04-25T05:45:44.194Z,"  69.91"
2019-04-25T05:46:45.311Z,"  69.78"
2019-04-25T05:47:44.327Z,"  69.85"
2019-04-25T05:48:44.162Z,"  69.79"
2019-04-25T05:49:44.170Z,"  69.77"
2019-04-25T05:50:44.162Z,"  69.94"
2019-04-25T05:51:44.193Z,"  69.76"
2019-04-25T05:52:45.978Z,"  69.66"
2019-04-25T05:53:44.191Z,"  69.68"
2019-04-25T05:54:44.344Z,"  69.70"
2019-04-25T05:55:44.217Z,"  69.61"
2019-04-25T05:56:44.570Z,"  69.55"
2019-04-25T05:57:49.726Z,"  69.39"
2019-04-25T05:58:44.157Z,"  69.65"
2019-04-25T05:59:46.535Z,"  69.25"
2019-04-25T06:00:46.957Z,"  69.21"
2019-04-25T06:01:44.158Z,"  69.25"
2019-04-25T06:02:46.124Z,"  69.06"
2019-04-25T06:03:44.183Z,"  69.23"
2019-04-25T06:04:44.186Z,"  69.09"
2019-04-25T06:05:44.135Z,"  69.20"
2019-04-25T06:06:44.650Z,"  69.44"
2019-04-25T06:07:44.217Z,"  69.29"
2019-04-25T06:08:44.212Z,"  69.32"
2019-04-25T06:09:44.445Z,"  69.30"
2019-04-25T06:10:45.236Z,"  69.67"
2019-04-25T06:11:44.198Z,"  68.99"
2019-04-25T06:12:44.195Z,"  68.66"
2019-04-25T06:13:45.029Z,"  69.09"
2019-04-25T06:14:44.119Z,"  68.90"
2019-04-25T06:15:44.187Z,"  68.48"
2019-04-25T06:16:44.250Z,"  68.62"
2019-04-25T06:17:44.473Z,"  68.70"
2019-04-25T06:18:44.373Z,"  68.91"
2019-04-25T06:19:44.119Z,"  68.76"
2019-04-25T06:20:44.336Z,"  68.96"
2019-04-25T06:21:44.126Z,"  69.24"
2019-04-25T06:22:44.293Z,"  69.40"
2019-04-25T06:23:45.967Z,"  68.74"
2019-04-25T06:24:44.478Z,"  68.93"
2019-04-25T06:25:44.160Z,"  69.07"
2019-04-25T06:26:44.134Z,"  68.55"
2019-04-25T06:27:56.311Z,"  68.48"
2019-04-25T06:28:53.760Z,"  68.69"
2019-04-25T06:29:44.121Z,"  68.41"
2019-04-25T06:30:44.354Z,"  68.26"
2019-04-25T06:31:44.186Z,"  68.33"
2019-04-25T06:32:44.378Z,"  68.58"
2019-04-25T06:33:44.199Z,"  69.00"
2019-04-25T06:34:44.425Z,"  68.38"
2019-04-25T06:35:44.257Z,"  68.52"
2019-04-25T06:36:44.126Z,"  68.84"
2019-04-25T06:37:44.097Z,"  68.32"
2019-04-25T06:38:44.394Z,"  68.41"
2019-04-25T06:39:44.323Z,"  68.45"
2019-04-25T06:40:44.147Z,"  68.81"
2019-04-25T06:41:44.227Z,"  68.64"
2019-04-25T06:42:46.540Z,"  68.47"
2019-04-25T06:43:44.343Z,"  68.21"
2019-04-25T06:44:44.085Z,"  68.15"
2019-04-25T06:45:44.258Z,"  68.36"
2019-04-25T06:46:44.197Z,"  68.20"
2019-04-25T06:47:44.328Z,"  68.16"
2019-04-25T06:48:45.539Z,"  68.20"
2019-04-25T06:49:44.106Z,"  67.98"
2019-04-25T06:50:44.137Z,"  67.86"
2019-04-25T06:51:46.084Z,"  67.90"
2019-04-25T06:52:44.051Z,"  68.27"
2019-04-25T06:53:44.119Z,"  67.93"
2019-04-25T06:54:44.079Z,"  68.01"
2019-04-25T06:55:45.019Z,"  67.31"
2019-04-25T06:56:44.079Z,"  67.88"
2019-04-25T06:57:44.175Z,"  67.64"
2019-04-25T06:58:44.195Z,"  67.28"
2019-04-25T06:59:44.068Z,"  67.17"
2019-04-25T07:00:57.596Z,"  67.58"
2019-04-25T07:01:44.231Z,"  67.14"
2019-04-25T07:02:44.278Z,"  66.92"
2019-04-25T07:03:44.249Z,"  66.74"
2019-04-25T07:04:45.699Z,"  66.84"
2019-04-25T07:05:44.112Z,"  67.09"
2019-04-25T07:06:45.480Z,"  67.43"
2019-04-25T07:07:45.428Z,"  66.78"
2019-04-25T07:08:44.778Z,"  66.77"
2019-04-25T07:09:44.115Z,"  67.13"
2019-04-25T07:10:44.598Z,"  66.88"
2019-04-25T07:11:44.208Z,"  66.80"
2019-04-25T07:12:44.404Z,"  66.94"
2019-04-25T07:13:44.035Z,"  66.54"
2019-04-25T07:14:44.113Z,"  66.94"
2019-04-25T07:15:44.065Z,"  66.65"
2019-04-25T07:16:44.086Z,"  66.16"
2019-04-25T07:17:45.696Z,"  66.19"
2019-04-25T07:18:44.091Z,"  66.62"
2019-04-25T07:19:44.201Z,"  66.20"
2019-04-25T07:20:45.308Z,"  66.03"
2019-04-25T07:21:44.430Z,"  65.75"
2019-04-25T07:22:44.133Z,"  65.95"
2019-04-25T07:23:46.303Z,"  65.75"
2019-04-25T07:24:44.108Z,"  65.97"
2019-04-25T07:25:44.070Z,"  65.52"
2019-04-25T07:26:44.270Z,"  65.53"
2019-04-25T07:27:44.792Z,"  65.51"
2019-04-25T07:28:44.102Z,"  65.86"
2019-04-25T07:29:44.079Z,"  65.33"
2019-04-25T07:30:50.225Z,"  65.63"
2019-04-25T07:31:44.308Z,"  65.19"
2019-04-25T07:32:44.061Z,"  65.10"
2019-04-25T07:33:44.089Z,"  65.13"
2019-04-25T07:34:43.993Z,"  65.00"
2019-04-25T07:35:44.022Z,"  65.28"
2019-04-25T07:36:45.541Z,"  65.21"
2019-04-25T07:37:44.222Z,"  64.86"
2019-04-25T07:38:44.798Z,"  65.84"
2019-04-25T07:39:44.277Z,"  65.42"
2019-04-25T07:40:44.055Z,"  65.13"
2019-04-25T07:41:44.223Z,"  65.19"
2019-04-25T07:42:44.011Z,"  64.81"
2019-04-25T07:43:44.015Z,"  65.10"
2019-04-25T07:44:52.014Z,"  65.14"
2019-04-25T07:45:44.084Z,"  65.44"
2019-04-25T07:46:44.031Z,"  65.27"
2019-04-25T07:47:44.232Z,"  65.55"
2019-04-25T07:48:43.998Z,"  65.00"
2019-04-25T07:49:44.029Z,"  65.30"
2019-04-25T07:50:44.035Z,"  65.50"
2019-04-25T07:51:45.364Z,"  64.69"
2019-04-25T07:52:44.360Z,"  65.05"
2019-04-25T07:53:44.011Z,"  64.93"
2019-04-25T07:54:44.094Z,"  64.88"
2019-04-25T07:55:43.957Z,"  64.53"
2019-04-25T07:56:43.998Z,"  64.86"
2019-04-25T07:57:44.361Z,"  65.37"
2019-04-25T07:58:49.260Z,"  65.62"
2019-04-25T07:59:44.058Z,"  65.29"
2019-04-25T08:00:44.072Z,"  64.43"
2019-04-25T08:01:44.001Z,"  64.18"
2019-04-25T08:02:44.065Z,"  64.29"
2019-04-25T08:03:44.026Z,"  64.42"
2019-04-25T08:04:44.331Z,"  64.12"
2019-04-25T08:05:44.070Z,"  63.95"
2019-04-25T08:06:44.650Z,"  63.87"
2019-04-25T08:07:43.975Z,"  63.71"
2019-04-25T08:08:44.049Z,"  63.60"
2019-04-25T08:09:44.344Z,"  63.65"
2019-04-25T08:10:45.354Z,"  62.88"
2019-04-25T08:11:44.037Z,"  63.28"
2019-04-25T08:12:44.124Z,"  62.49"
2019-04-25T08:13:43.950Z,"  62.38"
2019-04-25T08:14:45.805Z,"  62.60"
2019-04-25T08:15:44.022Z,"  62.95"
2019-04-25T08:16:44.293Z,"  62.74"
2019-04-25T08:17:44.185Z,"  62.34"
2019-04-25T08:18:43.967Z,"  61.96"
2019-04-25T08:19:44.319Z,"  62.20"
2019-04-25T08:20:44.018Z,"  62.17"
2019-04-25T08:21:45.109Z,"  62.28"
2019-04-25T08:22:55.821Z,"  62.50"
2019-04-25T08:23:44.007Z,"  61.58"
2019-04-25T08:24:44.102Z,"  61.84"
2019-04-25T08:25:44.202Z,"  62.20"
2019-04-25T08:26:43.980Z,"  61.22"
2019-04-25T08:27:45.061Z,"  61.09"
2019-04-25T08:28:55.025Z,"  61.03"
2019-04-25T08:29:45.540Z,"  60.73"
2019-04-25T08:30:43.982Z,"  60.73"
2019-04-25T08:31:45.213Z,"  60.15"
2019-04-25T08:32:44.120Z,"  60.03"
2019-04-25T08:33:46.598Z,"  59.96"
2019-04-25T08:34:44.721Z,"  60.57"
2019-04-25T08:36:03.040Z,"  60.14"
2019-04-25T08:36:45.594Z,"  59.83"
2019-04-25T08:37:44.175Z,"  60.32"
2019-04-25T08:38:44.731Z,"  60.23"
2019-04-25T08:39:45.106Z,"  58.95"
2019-04-25T08:40:44.166Z,"  59.90"
2019-04-25T08:41:45.580Z,"  59.72"
2019-04-25T08:42:44.835Z,"  59.11"
2019-04-25T08:43:45.494Z,"  59.47"
2019-04-25T08:44:44.892Z,"  59.38"
2019-04-25T08:45:44.273Z,"  59.15"
2019-04-25T08:46:44.620Z,"  59.43"
2019-04-25T08:47:44.006Z,"  59.38"
2019-04-25T08:48:44.404Z,"  59.69"
2019-04-25T08:49:45.728Z,"  59.06"
2019-04-25T08:50:44.483Z,"  58.14"
2019-04-25T08:51:44.515Z,"  58.90"
2019-04-25T08:52:44.280Z,"  59.02"
2019-04-25T08:53:45.041Z,"  59.04"
2019-04-25T08:54:45.727Z,"  58.70"
2019-04-25T08:55:45.579Z,"  58.58"
2019-04-25T08:56:44.126Z,"  58.85"
2019-04-25T08:57:44.525Z,"  58.44"
2019-04-25T08:58:44.582Z,"  58.30"
2019-04-25T08:59:49.394Z,"  57.95"
2019-04-25T09:00:44.700Z,"  57.03"
2019-04-25T09:02:44.808Z,"  57.62"
2019-04-25T09:03:44.350Z,"  58.06"
2019-04-25T09:04:44.601Z,"  57.97"
2019-04-25T09:05:45.882Z,"  56.98"
2019-04-25T09:06:44.287Z,"  56.86"
2019-04-25T09:07:44.510Z,"  56.93"
2019-04-25T09:08:46.360Z,"  56.73"
2019-04-25T09:09:45.115Z,"  56.65"
2019-04-25T09:10:44.879Z,"  57.53"
2019-04-25T09:11:46.895Z,"  57.52"
2019-04-25T09:12:44.302Z,"  56.75"
2019-04-25T09:13:44.971Z,"  56.98"
2019-04-25T09:14:45.077Z,"  57.02"
2019-04-25T09:15:45.572Z,"  57.70"
2019-04-25T09:16:44.870Z,"  57.62"
2019-04-25T09:17:44.501Z,"  56.36"
2019-04-25T09:18:44.355Z,"  56.41"
2019-04-25T09:19:44.436Z,"  54.89"
2019-04-25T09:20:46.489Z,"  54.79"
2019-04-25T09:21:48.117Z,"  54.78"
2019-04-25T09:22:44.591Z,"  54.81"
2019-04-25T09:23:44.843Z,"  53.95"
2019-04-25T09:24:44.432Z,"  54.19"
2019-04-25T09:25:45.959Z,"  53.79"
2019-04-25T09:26:45.296Z,"  53.05"
2019-04-25T09:27:45.530Z,"  52.51"
2019-04-25T09:28:45.423Z,"  52.79"
2019-04-25T09:29:45.234Z,"  53.57"
2019-04-25T09:30:44.859Z,"  52.70"
2019-04-25T09:31:45.140Z,"  53.25"
2019-04-25T09:32:44.579Z,"  52.30"
2019-04-25T09:33:45.534Z,"  52.49"
2019-04-25T09:34:43.861Z,"  52.34"
2019-04-25T09:35:45.710Z,"  52.53"
2019-04-25T09:36:44.973Z,"  51.23"
2019-04-25T09:37:44.946Z,"  52.37"
2019-04-25T09:38:46.978Z,"  50.81"
2019-04-25T09:39:44.358Z,"  51.14"
2019-04-25T09:40:44.529Z,"  52.01"
2019-04-25T09:41:44.756Z,"  50.89"
2019-04-25T09:42:45.073Z,"  50.54"
2019-04-25T09:43:45.602Z,"  50.96"
2019-04-25T09:44:44.209Z,"  51.12"
2019-04-25T09:45:44.863Z,"  51.25"
2019-04-25T09:46:46.519Z,"  51.11"
2019-04-25T09:47:44.836Z,"  51.23"
2019-04-25T09:48:44.605Z,"  51.59"
2019-04-25T09:49:44.844Z,"  51.75"
2019-04-25T09:50:45.109Z,"  50.41"
2019-04-25T09:51:44.591Z,"  50.56"
2019-04-25T09:52:44.368Z,"  50.07"
2019-04-25T09:53:49.604Z,"  50.02"
2019-04-25T09:54:44.892Z,"  49.71"
2019-04-25T09:55:46.819Z,"  49.25"
2019-04-25T09:56:45.107Z,"  49.19"
2019-04-25T09:57:44.607Z,"  49.64"
2019-04-25T09:58:46.999Z,"  49.68"
2019-04-25T09:59:45.057Z,"  49.91"
2019-04-25T10:00:44.841Z,"  48.96"
2019-04-25T10:01:44.820Z,"  49.08"
2019-04-25T10:02:44.575Z,"  48.88"
2019-04-25T10:03:44.506Z,"  50.36"
2019-04-25T10:04:45.225Z,"  48.70"
2019-04-25T10:05:44.699Z,"  48.85"
2019-04-25T10:06:45.003Z,"  48.91"
2019-04-25T10:07:46.216Z,"  49.62"
2019-04-25T10:08:45.379Z,"  49.15"
2019-04-25T10:09:44.732Z,"  49.19"
2019-04-25T10:10:44.640Z,"  49.29"
2019-04-25T10:11:45.065Z,"  47.92"
2019-04-25T10:12:47.445Z,"  48.08"
2019-04-25T10:13:44.785Z,"  46.85"
2019-04-25T10:14:45.240Z,"  46.70"
2019-04-25T10:15:44.738Z,"  46.50"
2019-04-25T10:16:44.485Z,"  47.10"
2019-04-25T10:17:44.993Z,"  47.76"
2019-04-25T10:18:44.625Z,"  47.72"
2019-04-25T10:19:43.803Z,"  46.66"
2019-04-25T10:20:45.217Z,"  45.96"
2019-04-25T10:21:43.887Z,"  45.27"
2019-04-25T10:22:44.583Z,"  44.37"
2019-04-25T10:23:45.382Z,"  44.12"
2019-04-25T10:24:56.505Z,"  45.16"
2019-04-25T10:25:44.177Z,"  44.45"
2019-04-25T10:26:45.119Z,"  44.33"
2019-04-25T10:27:46.461Z,"  43.96"
2019-04-25T10:28:44.162Z,"  43.91"
2019-04-25T10:29:52.756Z,"  44.13"
2019-04-25T10:30:43.757Z,"  44.07"
2019-04-25T10:31:44.331Z,"  43.89"
2019-04-25T10:32:44.274Z,"  44.24"
2019-04-25T10:33:45.570Z,"  44.44"
2019-04-25T10:34:45.145Z,"  43.25"
2019-04-25T10:35:52.059Z,"  43.73"
2019-04-25T10:36:45.293Z,"  43.59"
2019-04-25T10:37:45.321Z,"  42.98"
2019-04-25T10:38:46.274Z,"  42.17"
2019-04-25T10:39:44.715Z,"  42.21"
2019-04-25T10:40:45.156Z,"  43.18"
2019-04-25T10:41:46.097Z,"  42.44"
2019-04-25T10:42:46.500Z,"  43.45"
2019-04-25T10:43:44.017Z,"  43.91"
2019-04-25T10:44:45.782Z,"  43.53"
2019-04-25T10:45:44.775Z,"  44.23"
2019-04-25T10:46:46.868Z,"  44.34"
2019-04-25T10:47:44.291Z,"  44.96"
2019-04-25T10:48:44.051Z,"  44.49"
2019-04-25T10:49:44.967Z,"  44.94"
2019-04-25T10:50:45.204Z,"  44.92"
2019-04-25T10:51:44.667Z,"  44.24"
2019-04-25T10:52:45.518Z,"  43.85"
2019-04-25T10:53:45.627Z,"  42.70"
2019-04-25T10:54:45.250Z,"  42.65"
2019-04-25T10:55:43.753Z,"  42.07"
2019-04-25T10:56:45.692Z,"  42.04"
2019-04-25T10:57:45.507Z,"  41.43"
2019-04-25T10:58:45.685Z,"  43.06"
2019-04-25T10:59:57.914Z,"  42.08"
2019-04-25T11:00:46.109Z,"  42.11"
2019-04-25T11:01:45.057Z,"  41.65"
2019-04-25T11:02:45.296Z,"  41.77"
2019-04-25T11:03:44.545Z,"  41.49"
2019-04-25T11:04:44.577Z,"  40.64"
2019-04-25T11:05:43.775Z,"  41.22"
2019-04-25T11:06:45.366Z,"  40.99"
2019-04-25T11:07:44.485Z,"  41.03"
2019-04-25T11:08:43.746Z,"  40.86"
2019-04-25T11:09:45.200Z,"  40.86"
2019-04-25T11:10:44.452Z,"  39.80"
2019-04-25T11:11:43.742Z,"  40.91"
2019-04-25T11:12:44.319Z,"  40.54"
2019-04-25T11:13:45.280Z,"  39.98"
2019-04-25T11:14:44.307Z,"  39.46"
2019-04-25T11:15:44.873Z,"  39.50"
2019-04-25T11:16:45.293Z,"  39.93"
2019-04-25T11:17:45.836Z,"  38.54"
2019-04-25T11:18:45.028Z,"  37.99"
2019-04-25T11:19:44.556Z,"  38.14"
2019-04-25T11:20:44.605Z,"  37.84"
2019-04-25T11:21:45.637Z,"  37.71"
2019-04-25T11:22:44.837Z,"  38.13"
2019-04-25T11:23:46.951Z,"  37.22"
2019-04-25T11:24:43.848Z,"  37.92"
2019-04-25T11:25:45.252Z,"  37.60"